createdAt,value
2022-09-12T00:02:09.156Z,1.0100334448160535
2022-09-12T00:11:38.700Z,1.2709030100334449
2022-09-12T00:18:08.972Z,1.2809364548494984
2022-09-12T00:24:47.478Z,1.0066889632107023
2022-09-12T00:31:16.167Z,1.451505016722408
2022-09-12T00:37:46.068Z,1.6120401337792643
2022-09-12T00:54:54.035Z,1.0234113712374582
2022-09-12T01:07:16.132Z,1.5986622073578596
2022-09-12T01:13:44.886Z,1.5451505016722409
2022-09-12T01:20:12.967Z,1.9698996655518395
2022-09-12T01:26:50.646Z,1.1070234113712374
2022-09-12T01:35:11.056Z,1.4749163879598661
2022-09-12T01:41:38.727Z,1.2775919732441472
2022-09-12T01:53:04.805Z,1.1438127090301002
2022-09-12T02:04:45.813Z,2.471571906354515
2022-09-12T02:16:06.110Z,2.2842809364548495
2022-09-12T02:22:34.679Z,1.4280936454849498
2022-09-12T02:38:35.820Z,3.0936454849498327
2022-09-12T02:45:03.983Z,3.0869565217391304
2022-09-12T02:51:31.853Z,3.451505016722408
2022-09-12T02:58:00.596Z,2.0434782608695654
2022-09-12T03:05:59.520Z,2.1672240802675584
2022-09-12T03:12:27.027Z,2.79933110367893
2022-09-12T03:18:54.983Z,2.591973244147157
2022-09-12T03:25:23.354Z,3.1739130434782608
2022-09-12T03:31:53.386Z,2.7357859531772575
2022-09-12T03:38:23.098Z,4.933110367892977
2022-09-12T03:44:52.598Z,3.963210702341137
2022-09-12T03:51:23.838Z,5.511705685618729
2022-09-12T03:59:28.164Z,5.153846153846154
2022-09-12T04:05:58.105Z,3.668896321070234
2022-09-12T04:22:47.592Z,5.608695652173913
2022-09-12T04:30:28.936Z,6.076923076923077
2022-09-12T04:36:59.398Z,6.892976588628763
2022-09-12T04:43:28.673Z,7.40133779264214
2022-09-12T04:49:58.794Z,7.066889632107023
2022-09-12T04:56:25.794Z,7.39799331103679
2022-09-12T05:02:54.755Z,7.190635451505017
2022-09-12T05:09:24.134Z,7.367892976588629
2022-09-12T05:21:15.374Z,5.8996655518394645
2022-09-12T05:30:51.004Z,6.668896321070235
2022-09-12T05:37:20.213Z,4.792642140468227
2022-09-12T05:48:20.385Z,5.076923076923077
2022-09-12T05:54:49.004Z,5.508361204013378
2022-09-12T06:01:16.778Z,3.939799331103679
2022-09-12T06:16:29.302Z,4.65886287625418
2022-09-12T06:31:07.414Z,5.68561872909699
2022-09-12T06:43:51.013Z,6.535117056856187
2022-09-12T06:50:18.254Z,5.802675585284281
2022-09-12T06:56:45.565Z,4.892976588628763
2022-09-12T07:03:13.087Z,6.719063545150502
2022-09-12T07:12:20.354Z,7.411371237458194
2022-09-12T07:24:51.998Z,10.77257525083612
2022-09-12T07:31:19.490Z,10.57190635451505
2022-09-12T07:37:46.483Z,13.294314381270903
2022-09-12T07:44:13.295Z,13.183946488294314
2022-09-12T07:50:44.952Z,13.394648829431437
2022-09-12T07:57:12.681Z,12.993311036789297
2022-09-12T08:03:39.489Z,16.722408026755854
2022-09-12T08:10:06.854Z,13.444816053511706
2022-09-12T08:16:33.706Z,15.324414715719064
2022-09-12T08:23:08.576Z,12.68561872909699
2022-09-12T08:35:17.078Z,10.528428093645484
2022-09-12T08:41:44.225Z,13.130434782608695
2022-09-12T08:50:10.806Z,12.207357859531772
2022-09-12T09:01:14.226Z,14.919732441471572
2022-09-12T09:07:44.280Z,13.274247491638796
2022-09-12T09:15:34.033Z,13.97324414715719
2022-09-12T09:24:16.481Z,15.57190635451505
2022-09-12T09:45:47.979Z,10.555183946488294
2022-09-12T09:52:15.713Z,9.68227424749164
2022-09-12T10:08:30.664Z,10.729096989966555
2022-09-12T10:14:57.459Z,4.070234113712375
2022-09-12T10:21:24.876Z,4.762541806020067
2022-09-12T10:28:01.248Z,4.782608695652174
2022-09-12T10:34:57.277Z,4.595317725752508
2022-09-12T10:42:11.510Z,3.0066889632107023
2022-09-12T10:48:38.711Z,4.722408026755853
2022-09-12T10:55:06.423Z,3.294314381270903
2022-09-12T11:01:34.019Z,3.254180602006689
2022-09-12T11:08:01.577Z,2.020066889632107
2022-09-12T11:14:48.438Z,1.7759197324414715
2022-09-12T11:21:16.644Z,1.588628762541806
2022-09-12T11:28:31.292Z,2.321070234113712
2022-09-12T11:41:14.601Z,0.8662207357859532
2022-09-12T11:50:36.951Z,1.0836120401337792
2022-09-12T11:58:05.250Z,0.939799331103679
2022-09-12T12:04:59.149Z,0.9130434782608695
2022-09-12T12:11:22.387Z,0.9331103678929766
2022-09-12T12:17:46.017Z,0.8963210702341137
2022-09-12T12:24:13.295Z,0.6086956521739131
2022-09-12T12:30:37.212Z,0.4414715719063545
2022-09-12T12:52:14.622Z,0.7525083612040134
2022-09-12T12:58:38.298Z,0.34782608695652173
2022-09-12T13:05:01.368Z,0.8896321070234113
2022-09-12T13:11:24.310Z,0.5351170568561873
2022-09-12T13:17:53.252Z,0.4414715719063545
2022-09-12T13:24:15.955Z,1.157190635451505
2022-09-12T13:36:00.736Z,0.5284280936454849
2022-09-12T13:44:46.481Z,0.5217391304347826
2022-09-12T13:51:10.137Z,0.2608695652173913
2022-09-12T13:57:34.887Z,0.5217391304347826
2022-09-12T14:04:03.431Z,0.5284280936454849
2022-09-12T14:10:28.342Z,0.5284280936454849
2022-09-12T14:18:12.653Z,1.5518394648829432
2022-09-12T14:24:36.387Z,0.7290969899665551
2022-09-12T14:33:32.245Z,0.6622073578595318
2022-09-12T14:47:37.810Z,0.5551839464882943
2022-09-12T14:54:00.890Z,0.7959866220735786
2022-09-12T15:00:24.952Z,0.7157190635451505
2022-09-12T15:08:15.417Z,0.7023411371237458
2022-09-12T15:14:39.218Z,0.5284280936454849
2022-09-12T15:21:03.133Z,0.9565217391304348
2022-09-12T15:27:25.833Z,0.6555183946488294
2022-09-12T15:33:49.177Z,0.8494983277591973
2022-09-12T15:40:12.674Z,0.7023411371237458
2022-09-12T15:46:37.336Z,0.6555183946488294
2022-09-12T15:53:00.885Z,1.4548494983277591
2022-09-12T15:59:23.866Z,0.6956521739130435
2022-09-12T16:09:55.934Z,0.4414715719063545
2022-09-12T16:16:18.647Z,0.4080267558528428
2022-09-12T16:22:42.758Z,1.117056856187291
2022-09-12T16:29:06.286Z,0.6688963210702341
2022-09-12T16:35:30.059Z,0.6822742474916388
2022-09-12T16:41:54.037Z,1.4581939799331103
2022-09-12T16:50:18.347Z,0.6956521739130435
2022-09-12T16:56:42.442Z,0.5418060200668896
2022-09-12T17:03:07.530Z,1.2240802675585285
2022-09-12T17:09:32.189Z,0.7792642140468228
2022-09-12T17:15:56.717Z,0.9130434782608695
2022-09-12T17:26:24.396Z,1.0133779264214047
2022-09-12T17:32:50.113Z,1.1505016722408026
2022-09-12T17:39:14.290Z,0.8561872909698997
2022-09-12T17:46:30.261Z,0.9464882943143813
2022-09-12T17:52:58.798Z,1.645484949832776
2022-09-12T17:59:32.532Z,1.5719063545150502
2022-09-12T18:12:16.348Z,1.4180602006688963
2022-09-12T18:18:57.590Z,1.725752508361204
2022-09-12T18:25:29.131Z,3.1538461538461537
2022-09-12T18:32:00.998Z,2.1270903010033444
2022-09-12T18:42:42.247Z,2.080267558528428
2022-09-12T18:49:12.517Z,1.3979933110367893
2022-09-12T18:55:57.562Z,1.879598662207358
2022-09-12T19:05:54.428Z,2.5618729096989967
2022-09-12T19:12:26.685Z,2.0133779264214047
2022-09-12T19:25:15.737Z,1.1906354515050168
2022-09-12T19:31:48.434Z,0.9130434782608695
2022-09-12T19:39:57.433Z,2.2842809364548495
2022-09-12T19:46:39.711Z,5.107023411371237
2022-09-12T19:53:22.891Z,2.3612040133779266
2022-09-12T20:05:00.432Z,2.5451505016722407
2022-09-12T20:11:35.300Z,1.193979933110368
2022-09-12T20:18:08.695Z,1.137123745819398
2022-09-12T20:24:35.664Z,1.6822742474916388
2022-09-12T20:31:04.482Z,1.2040133779264215
2022-09-12T20:40:04.307Z,1.5785953177257526
2022-09-12T20:46:34.480Z,0.8896321070234113
2022-09-12T20:53:04.359Z,2.0468227424749164
2022-09-12T20:59:33.343Z,0.802675585284281
2022-09-12T21:06:01.798Z,1.1839464882943145
2022-09-12T21:12:29.982Z,1.2976588628762542
2022-09-12T21:18:56.734Z,2.37123745819398
2022-09-12T21:25:24.072Z,1.5016722408026757
2022-09-12T21:31:50.710Z,2.0735785953177257
2022-09-12T21:38:17.307Z,1.4381270903010033
2022-09-12T21:44:43.327Z,1.4381270903010033
2022-09-12T21:51:10.613Z,0.882943143812709
2022-09-12T21:57:37.224Z,0.9163879598662207
2022-09-12T22:08:53.543Z,1.9832775919732442
2022-09-12T22:24:51.344Z,0.7959866220735786
2022-09-12T22:31:19.716Z,2.3612040133779266
2022-09-12T22:37:49.328Z,0.903010033444816
2022-09-12T22:44:16.678Z,1.0033444816053512
2022-09-12T22:50:43.206Z,1.391304347826087
2022-09-12T23:01:22.952Z,0.7157190635451505
2022-09-12T23:07:49.435Z,1.0367892976588629
2022-09-12T23:14:16.517Z,2.2240802675585285
2022-09-12T23:20:43.294Z,1.140468227424749
2022-09-12T23:27:14.912Z,1.3311036789297659
2022-09-12T23:33:41.103Z,1.354515050167224
2022-09-12T23:40:08.319Z,1.1103678929765886
2022-09-12T23:47:07.148Z,1.588628762541806
2022-09-12T23:53:34.753Z,1.117056856187291
